createdAt,value
2019-03-13T00:00:38.708Z,74.28
2019-03-13T00:03:08.371Z,73.79
2019-03-13T00:05:37.338Z,72.81
2019-03-13T00:08:06.317Z,73.03
2019-03-13T00:10:34.976Z,73.59
2019-03-13T00:13:03.978Z,75.69
2019-03-13T00:15:32.814Z,74.47
2019-03-13T00:18:01.470Z,73.98
2019-03-13T00:20:30.141Z,76.17
2019-03-13T00:22:58.812Z,75.54
2019-03-13T00:25:27.515Z,74.23
2019-03-13T00:27:56.367Z,72.27
2019-03-13T00:30:25.074Z,73.26
2019-03-13T00:32:53.737Z,73.43
2019-03-13T00:35:22.441Z,72.70
2019-03-13T00:37:51.100Z,73.25
2019-03-13T00:40:19.776Z,72.20
2019-03-13T00:42:48.471Z,72.77
2019-03-13T00:45:18.286Z,73.16
2019-03-13T00:47:47.069Z,73.03
2019-03-13T00:50:24.580Z,73.39
2019-03-13T00:52:53.330Z,74.04
2019-03-13T00:55:22.043Z,74.04
2019-03-13T00:57:50.707Z,73.12
2019-03-13T01:00:33.770Z,73.26
2019-03-13T01:03:02.436Z,73.51
2019-03-13T01:05:32.682Z,72.71
2019-03-13T01:08:01.375Z,72.43
2019-03-13T01:10:30.104Z,72.53
2019-03-13T01:12:58.778Z,73.42
2019-03-13T01:15:27.466Z,73.74
2019-03-13T01:17:56.128Z,74.11
2019-03-13T01:20:24.786Z,73.09
2019-03-13T01:22:53.450Z,73.35
2019-03-13T01:25:22.117Z,73.01
2019-03-13T01:27:50.793Z,72.92
2019-03-13T01:30:19.484Z,72.43
2019-03-13T01:32:49.725Z,75.54
2019-03-13T01:35:26.268Z,72.70
2019-03-13T01:37:55.036Z,74.01
2019-03-13T01:40:23.699Z,74.21
2019-03-13T01:42:52.382Z,74.52
2019-03-13T01:45:22.520Z,74.48
2019-03-13T01:47:51.209Z,71.97
2019-03-13T01:50:19.876Z,71.96
2019-03-13T01:52:48.543Z,71.69
2019-03-13T01:55:17.219Z,72.17
2019-03-13T01:57:45.875Z,73.79
2019-03-13T02:00:16.661Z,72.64
2019-03-13T02:02:45.409Z,72.46
2019-03-13T02:05:14.574Z,72.87
2019-03-13T02:07:43.264Z,71.98
2019-03-13T02:10:13.276Z,72.05
2019-03-13T02:12:42.267Z,71.72
2019-03-13T02:15:13.757Z,71.61
2019-03-13T02:17:42.417Z,72.19
2019-03-13T02:20:12.714Z,72.15
2019-03-13T02:22:41.382Z,71.85
2019-03-13T02:25:12.154Z,70.96
2019-03-13T02:27:40.811Z,70.96
2019-03-13T02:30:18.839Z,70.87
2019-03-13T02:32:47.503Z,71.17
2019-03-13T02:35:16.192Z,71.65
2019-03-13T02:37:45.243Z,73.02
2019-03-13T02:40:15.309Z,71.76
2019-03-13T02:42:43.981Z,71.13
2019-03-13T02:45:14.551Z,71.87
2019-03-13T02:47:43.214Z,71.83
2019-03-13T02:50:16.486Z,73.82
2019-03-13T02:52:45.303Z,73.48
2019-03-13T02:55:14.037Z,72.20
2019-03-13T02:57:42.719Z,72.23
2019-03-13T03:00:19.127Z,72.19
2019-03-13T03:02:49.356Z,72.75
2019-03-13T03:05:18.207Z,72.05
2019-03-13T03:07:46.888Z,72.26
2019-03-13T03:10:15.532Z,72.30
2019-03-13T03:12:44.277Z,71.81
2019-03-13T03:15:18.385Z,71.70
2019-03-13T03:17:47.111Z,71.66
2019-03-13T03:20:20.370Z,72.62
2019-03-13T03:22:49.027Z,70.54
2019-03-13T03:25:18.290Z,69.95
2019-03-13T03:27:46.945Z,69.82
2019-03-13T03:30:23.854Z,70.76
2019-03-13T03:32:52.554Z,71.07
2019-03-13T03:35:21.455Z,71.48
2019-03-13T03:37:50.123Z,71.33
2019-03-13T03:40:22.902Z,71.40
2019-03-13T03:42:51.009Z,70.93
2019-03-13T03:45:19.681Z,71.17
2019-03-13T03:47:48.366Z,71.01
2019-03-13T03:50:17.934Z,70.28
2019-03-13T03:52:46.858Z,70.56
2019-03-13T03:55:16.643Z,69.96
2019-03-13T03:57:45.460Z,68.99
2019-03-13T04:00:18.828Z,68.97
2019-03-13T04:02:47.485Z,68.70
2019-03-13T04:05:16.399Z,68.20
2019-03-13T04:07:45.065Z,67.87
2019-03-13T04:10:14.812Z,67.02
2019-03-13T04:12:43.485Z,66.19
2019-03-13T04:15:17.053Z,66.36
2019-03-13T04:17:45.859Z,66.35
2019-03-13T04:20:16.731Z,65.97
2019-03-13T04:22:45.480Z,66.10
2019-03-13T04:25:31.147Z,65.67
2019-03-13T04:28:00.055Z,65.65
2019-03-13T04:30:29.131Z,65.81
2019-03-13T04:32:57.833Z,65.63
2019-03-13T04:35:26.519Z,65.79
2019-03-13T04:37:55.191Z,66.52
2019-03-13T04:40:24.003Z,65.45
2019-03-13T04:42:52.684Z,65.58
2019-03-13T04:45:21.355Z,65.45
2019-03-13T04:47:50.023Z,66.19
2019-03-13T04:50:18.707Z,65.41
2019-03-13T04:52:47.652Z,64.72
2019-03-13T04:55:17.243Z,65.35
2019-03-13T04:57:45.967Z,65.32
2019-03-13T05:00:21.271Z,64.85
2019-03-13T05:02:50.058Z,63.60
2019-03-13T05:05:42.384Z,64.24
2019-03-13T05:08:20.544Z,64.11
2019-03-13T05:10:49.229Z,64.27
2019-03-13T05:13:17.926Z,63.05
2019-03-13T05:15:46.783Z,62.97
2019-03-13T05:18:15.446Z,62.88
2019-03-13T05:20:44.120Z,63.35
2019-03-13T05:23:12.776Z,62.33
2019-03-13T05:25:41.444Z,62.28
2019-03-13T05:28:10.122Z,62.88
2019-03-13T05:30:38.814Z,62.43
2019-03-13T05:33:07.501Z,61.80
2019-03-13T05:35:36.211Z,61.31
2019-03-13T05:38:04.924Z,61.45
2019-03-13T05:40:33.625Z,61.97
2019-03-13T05:43:02.282Z,60.94
2019-03-13T05:45:30.948Z,60.16
2019-03-13T05:47:59.612Z,60.75
2019-03-13T05:50:31.486Z,59.86
2019-03-13T05:52:59.125Z,58.74
2019-03-13T05:55:27.972Z,59.40
2019-03-13T05:57:56.682Z,59.38
2019-03-13T06:00:26.472Z,58.84
2019-03-13T06:02:55.138Z,57.92
2019-03-13T06:05:23.849Z,57.30
2019-03-13T06:07:52.516Z,56.53
2019-03-13T06:10:21.197Z,57.69
2019-03-13T06:12:50.013Z,57.32
2019-03-13T06:15:18.898Z,56.80
2019-03-13T06:17:47.555Z,56.83
2019-03-13T06:20:17.257Z,58.31
2019-03-13T06:22:46.049Z,58.08
2019-03-13T06:25:15.197Z,59.59
2019-03-13T06:27:46.345Z,57.67
2019-03-13T06:30:17.260Z,54.51
2019-03-13T06:32:45.977Z,53.14
2019-03-13T06:35:14.955Z,51.99
2019-03-13T06:37:43.767Z,49.08
2019-03-13T06:40:17.364Z,47.28
2019-03-13T06:42:46.338Z,45.41
2019-03-13T06:45:16.424Z,43.06
2019-03-13T06:47:45.277Z,41.21
2019-03-13T06:50:22.394Z,40.61
2019-03-13T06:52:51.064Z,39.47
2019-03-13T06:55:19.733Z,36.40
2019-03-13T06:57:48.907Z,36.50
2019-03-13T07:00:35.564Z,37.46
2019-03-13T07:03:08.959Z,36.63
2019-03-13T07:08:41.456Z,33.77
2019-03-13T07:11:20.567Z,32.63
2019-03-13T07:14:09.142Z,32.25
2019-03-13T07:16:39.417Z,32.71
2019-03-13T07:19:25.771Z,32.02
2019-03-13T07:22:01.760Z,31.19
2019-03-13T07:24:48.509Z,32.06
2019-03-13T07:27:24.694Z,32.14
2019-03-13T07:30:10.057Z,32.79
2019-03-13T07:32:43.076Z,37.25
2019-03-13T07:35:28.703Z,40.34
2019-03-13T07:37:58.958Z,43.36
2019-03-13T07:40:41.051Z,38.41
2019-03-13T07:43:27.827Z,36.04
2019-03-13T07:45:58.212Z,39.25
2019-03-13T07:48:31.524Z,40.17
2019-03-13T07:51:18.381Z,42.79
2019-03-13T07:53:54.740Z,43.34
2019-03-13T07:56:34.026Z,45.03
2019-03-13T07:59:06.931Z,46.00
2019-03-13T08:01:37.276Z,46.29
2019-03-13T08:04:19.666Z,45.82
2019-03-13T08:06:52.922Z,45.43
2019-03-13T08:09:35.043Z,44.33
2019-03-13T08:12:05.790Z,44.29
2019-03-13T08:14:45.157Z,44.46
2019-03-13T08:17:21.320Z,45.06
2019-03-13T08:20:00.494Z,45.09
2019-03-13T08:22:36.573Z,45.05
2019-03-13T08:25:24.895Z,44.29
2019-03-13T08:27:58.272Z,42.95
2019-03-13T08:30:37.968Z,38.69
2019-03-13T08:33:08.213Z,38.06
2019-03-13T08:35:55.056Z,34.71
2019-03-13T08:38:31.285Z,31.02
2019-03-13T08:41:04.246Z,29.34
2019-03-13T08:43:50.613Z,27.87
2019-03-13T08:46:37.310Z,28.56
2019-03-13T08:49:19.556Z,26.75
2019-03-13T08:52:01.848Z,27.14
2019-03-13T08:54:32.281Z,23.91
2019-03-13T08:57:02.815Z,23.08
2019-03-13T08:59:33.058Z,24.47
2019-03-13T09:02:05.853Z,26.56
2019-03-13T09:04:42.485Z,26.41
2019-03-13T09:07:15.895Z,27.90
2019-03-13T09:09:49.080Z,26.91
2019-03-13T09:12:25.561Z,27.58
2019-03-13T09:14:55.809Z,29.23
2019-03-13T09:17:26.056Z,32.25
2019-03-13T09:19:59.468Z,29.65
2019-03-13T09:22:36.047Z,31.15
2019-03-13T09:25:12.317Z,32.40
2019-03-13T09:27:46.333Z,31.37
2019-03-13T09:30:16.808Z,29.86
2019-03-13T09:33:03.302Z,28.52
2019-03-13T09:35:33.536Z,26.71
2019-03-13T09:38:06.886Z,23.67
2019-03-13T09:40:37.142Z,27.45
2019-03-13T09:43:10.532Z,25.50
2019-03-13T09:45:40.833Z,26.40
2019-03-13T09:48:11.107Z,27.04
2019-03-13T09:50:41.341Z,27.32
2019-03-13T09:53:11.609Z,22.55
2019-03-13T09:55:44.606Z,20.87
2019-03-13T09:58:24.005Z,20.64
2019-03-13T10:01:07.921Z,20.46
2019-03-13T10:03:57.746Z,22.74
2019-03-13T10:06:46.756Z,24.52
2019-03-13T10:09:23.225Z,20.58
2019-03-13T10:11:56.305Z,19.11
2019-03-13T10:14:29.426Z,18.35
2019-03-13T10:17:10.445Z,16.99
2019-03-13T10:19:37.476Z,20.17
2019-03-13T10:22:09.228Z,20.11
2019-03-13T10:24:39.481Z,23.07
2019-03-13T10:27:14.066Z,23.07
2019-03-13T10:29:50.572Z,19.63
2019-03-13T10:32:21.243Z,18.04
2019-03-13T10:34:54.397Z,21.21
2019-03-13T10:37:30.655Z,22.08
2019-03-13T10:40:03.888Z,20.20
2019-03-13T10:42:34.126Z,20.51
2019-03-13T10:45:11.840Z,20.40
2019-03-13T10:47:45.074Z,17.62
2019-03-13T10:50:16.081Z,16.86
2019-03-13T10:53:01.529Z,18.45
2019-03-13T10:55:34.863Z,17.61
2019-03-13T10:58:21.478Z,16.71
2019-03-13T11:00:51.835Z,18.23
2019-03-13T11:03:31.182Z,18.51
2019-03-13T11:06:19.197Z,16.22
2019-03-13T11:09:05.877Z,16.78
2019-03-13T11:11:54.489Z,16.23
2019-03-13T11:14:40.003Z,15.63
2019-03-13T11:17:19.412Z,17.59
2019-03-13T11:19:58.405Z,17.56
2019-03-13T11:22:43.570Z,17.21
2019-03-13T11:25:31.912Z,21.13
2019-03-13T11:28:02.278Z,21.83
2019-03-13T11:30:38.432Z,23.48
2019-03-13T11:33:23.639Z,24.03
2019-03-13T11:36:02.570Z,21.39
2019-03-13T11:38:32.996Z,20.21
2019-03-13T11:41:06.849Z,18.83
2019-03-13T11:43:55.095Z,19.55
2019-03-13T11:46:43.488Z,22.84
2019-03-13T11:49:25.836Z,26.06
2019-03-13T11:52:05.123Z,24.06
2019-03-13T11:54:35.464Z,27.60
2019-03-13T11:57:14.464Z,29.58
2019-03-13T11:59:48.239Z,28.89
2019-03-13T12:02:35.015Z,29.71
2019-03-13T12:05:06.414Z,29.41
2019-03-13T12:07:53.145Z,30.47
2019-03-13T12:10:23.398Z,29.57
2019-03-13T12:12:53.872Z,30.20
2019-03-13T12:15:39.937Z,28.11
2019-03-13T12:18:16.207Z,25.88
2019-03-13T12:21:01.712Z,25.90
2019-03-13T12:23:48.358Z,28.15
2019-03-13T12:26:22.068Z,29.38
2019-03-13T12:29:08.663Z,25.79
2019-03-13T12:31:55.281Z,21.81
2019-03-13T12:34:25.578Z,19.62
2019-03-13T12:37:12.098Z,19.22
2019-03-13T12:39:59.954Z,18.41
2019-03-13T12:42:30.296Z,17.33
2019-03-13T12:45:17.189Z,16.31
2019-03-13T12:48:16.150Z,16.47
2019-03-13T12:50:38.739Z,19.94
2019-03-13T12:56:01.728Z,22.92
2019-03-13T12:58:48.709Z,22.92
2019-03-13T13:01:22.305Z,23.21
2019-03-13T13:04:08.790Z,26.09
2019-03-13T13:06:41.935Z,27.18
2019-03-13T13:09:17.962Z,27.30
2019-03-13T13:11:56.299Z,28.98
2019-03-13T13:14:27.101Z,27.84
2019-03-13T13:17:15.291Z,28.84
2019-03-13T13:19:43.987Z,29.97
2019-03-13T13:22:12.857Z,32.09
2019-03-13T13:24:44.250Z,32.74
2019-03-13T13:27:13.127Z,33.03
2019-03-13T13:29:41.786Z,33.42
2019-03-13T13:32:10.650Z,33.87
2019-03-13T13:34:39.347Z,35.12
2019-03-13T13:37:08.122Z,36.09
2019-03-13T13:39:36.814Z,36.25
2019-03-13T13:42:05.838Z,36.40
2019-03-13T13:44:34.880Z,36.09
2019-03-13T13:47:03.550Z,36.44
2019-03-13T13:49:32.476Z,36.62
2019-03-13T13:52:01.320Z,36.50
2019-03-13T13:54:30.070Z,35.81
2019-03-13T13:56:58.790Z,34.81
2019-03-13T13:59:31.055Z,35.76
2019-03-13T14:02:00.621Z,36.70
2019-03-13T14:04:29.336Z,37.46
2019-03-13T14:06:58.097Z,36.66
2019-03-13T14:09:27.042Z,36.70
2019-03-13T14:11:55.884Z,35.27
2019-03-13T14:14:24.893Z,33.44
2019-03-13T14:16:53.761Z,33.65
2019-03-13T14:19:22.686Z,33.46
2019-03-13T14:21:54.646Z,31.80
2019-03-13T14:24:23.545Z,29.49
2019-03-13T14:26:52.478Z,30.23
2019-03-13T14:29:21.199Z,28.86
2019-03-13T14:31:50.128Z,29.24
2019-03-13T14:34:19.220Z,30.14
2019-03-13T14:36:48.573Z,32.07
2019-03-13T14:39:17.295Z,29.39
2019-03-13T14:41:46.217Z,27.27
2019-03-13T14:44:15.077Z,26.18
2019-03-13T14:46:43.969Z,26.35
2019-03-13T14:50:09.773Z,28.87
2019-03-13T14:52:38.443Z,32.18
2019-03-13T14:55:10.131Z,35.36
2019-03-13T14:57:38.829Z,36.66
2019-03-13T15:00:13.172Z,37.71
2019-03-13T15:02:41.942Z,38.45
2019-03-13T15:05:10.744Z,39.39
2019-03-13T15:07:39.404Z,39.95
2019-03-13T15:10:11.213Z,40.32
2019-03-13T15:12:42.944Z,40.94
2019-03-13T15:15:15.835Z,41.90
2019-03-13T15:17:45.063Z,42.63
2019-03-13T15:20:16.097Z,42.77
2019-03-13T15:22:45.067Z,43.02
2019-03-13T15:25:14.410Z,43.30
2019-03-13T15:27:43.192Z,43.29
2019-03-13T15:30:17.224Z,43.18
2019-03-13T15:32:45.899Z,43.15
2019-03-13T15:35:14.702Z,43.39
2019-03-13T15:37:43.374Z,44.04
2019-03-13T15:40:18.967Z,44.36
2019-03-13T15:42:49.047Z,45.01
2019-03-13T15:45:26.267Z,45.33
2019-03-13T15:47:55.022Z,45.84
2019-03-13T15:50:23.729Z,46.12
2019-03-13T15:52:52.397Z,46.61
2019-03-13T15:55:21.633Z,47.19
2019-03-13T15:57:50.538Z,47.57
2019-03-13T16:00:24.715Z,47.88
2019-03-13T16:02:55.628Z,48.35
2019-03-13T16:05:23.847Z,48.96
2019-03-13T16:07:52.513Z,49.08
2019-03-13T16:10:21.966Z,49.48
2019-03-13T16:12:51.758Z,49.90
2019-03-13T16:15:37.389Z,50.02
2019-03-13T16:18:06.100Z,50.39
2019-03-13T16:20:34.803Z,50.67
2019-03-13T16:23:03.992Z,51.09
2019-03-13T16:25:32.812Z,51.22
2019-03-13T16:28:01.782Z,51.53
2019-03-13T16:30:32.755Z,51.91
2019-03-13T16:33:01.455Z,52.22
2019-03-13T16:35:30.225Z,52.10
2019-03-13T16:37:58.898Z,52.35
2019-03-13T16:40:27.562Z,52.39
2019-03-13T16:42:56.285Z,52.65
2019-03-13T16:45:24.994Z,52.72
2019-03-13T16:47:53.671Z,52.84
2019-03-13T16:50:27.851Z,52.93
2019-03-13T16:52:56.488Z,53.07
2019-03-13T16:55:25.519Z,53.47
2019-03-13T16:57:54.182Z,53.68
2019-03-13T17:00:27.700Z,54.22
2019-03-13T17:02:56.669Z,53.83
2019-03-13T17:05:25.521Z,54.02
2019-03-13T17:07:54.391Z,54.26
2019-03-13T17:10:27.312Z,54.31
2019-03-13T17:12:56.274Z,54.37
2019-03-13T17:15:25.526Z,54.44
2019-03-13T17:17:54.576Z,54.74
2019-03-13T17:20:42.950Z,54.68
2019-03-13T17:23:11.614Z,55.14
2019-03-13T17:25:40.370Z,55.31
2019-03-13T17:28:09.017Z,55.54
2019-03-13T17:30:37.903Z,55.67
2019-03-13T17:33:06.569Z,55.85
2019-03-13T17:35:35.230Z,55.94
2019-03-13T17:38:03.907Z,56.13
2019-03-13T17:40:33.826Z,56.08
2019-03-13T17:43:03.358Z,55.95
2019-03-13T17:45:32.028Z,56.22
2019-03-13T17:48:00.729Z,56.43
2019-03-13T17:50:29.428Z,56.39
2019-03-13T17:52:58.127Z,56.65
2019-03-13T17:55:27.714Z,56.72
2019-03-13T17:57:57.308Z,56.58
2019-03-13T18:00:32.658Z,56.57
2019-03-13T18:03:04.849Z,56.57
2019-03-13T18:05:33.512Z,56.69
2019-03-13T18:08:02.201Z,56.71
2019-03-13T18:10:30.855Z,56.82
2019-03-13T18:12:59.507Z,56.83
2019-03-13T18:15:28.172Z,56.87
2019-03-13T18:17:56.835Z,57.00
2019-03-13T18:20:25.616Z,57.37
2019-03-13T18:22:54.279Z,56.93
2019-03-13T18:25:23.032Z,57.04
2019-03-13T18:27:51.787Z,57.07
2019-03-13T18:30:34.865Z,56.33
2019-03-13T18:33:03.718Z,56.50
2019-03-13T18:35:32.381Z,56.83
2019-03-13T18:38:01.181Z,56.52
2019-03-13T18:40:29.857Z,56.47
2019-03-13T18:42:58.574Z,56.82
2019-03-13T18:45:32.038Z,56.86
2019-03-13T18:48:00.699Z,56.43
2019-03-13T18:50:29.562Z,56.63
2019-03-13T18:52:58.238Z,56.68
2019-03-13T18:55:34.629Z,56.38
2019-03-13T18:58:03.499Z,56.41
2019-03-13T19:00:33.316Z,56.53
2019-03-13T19:03:02.080Z,56.82
2019-03-13T19:05:32.775Z,56.76
2019-03-13T19:08:01.444Z,57.16
2019-03-13T19:10:32.091Z,56.88
2019-03-13T19:13:00.872Z,56.92
2019-03-13T19:15:30.544Z,56.87
2019-03-13T19:18:00.908Z,56.72
2019-03-13T19:20:30.675Z,56.95
2019-03-13T19:22:59.877Z,56.84
2019-03-13T19:25:28.540Z,56.79
2019-03-13T19:27:57.219Z,56.36
2019-03-13T19:30:33.802Z,56.28
2019-03-13T19:33:02.479Z,56.49
2019-03-13T19:35:31.309Z,56.62
2019-03-13T19:38:13.603Z,56.49
2019-03-13T19:40:42.266Z,56.19
2019-03-13T19:43:11.041Z,56.77
2019-03-13T19:45:47.674Z,56.70
2019-03-13T19:48:16.368Z,56.70
2019-03-13T19:50:45.321Z,57.09
2019-03-13T19:53:14.028Z,57.19
2019-03-13T19:55:42.670Z,57.43
2019-03-13T19:58:11.355Z,57.59
2019-03-13T20:00:40.549Z,57.87
2019-03-13T20:03:14.111Z,57.83
2019-03-13T20:05:46.065Z,57.64
2019-03-13T20:08:14.158Z,58.01
2019-03-13T20:10:43.632Z,58.15
2019-03-13T20:13:12.315Z,57.59
2019-03-13T20:15:41.562Z,57.87
2019-03-13T20:18:10.303Z,57.63
2019-03-13T20:20:39.143Z,57.58
2019-03-13T20:23:13.135Z,57.66
2019-03-13T20:25:42.034Z,57.91
2019-03-13T20:28:10.859Z,57.56
2019-03-13T20:30:39.942Z,58.13
2019-03-13T20:33:08.611Z,57.33
2019-03-13T20:35:37.404Z,57.60
2019-03-13T20:38:06.066Z,57.73
2019-03-13T20:40:35.020Z,57.63
2019-03-13T20:43:03.818Z,57.59
2019-03-13T20:45:32.584Z,57.91
2019-03-13T20:48:01.213Z,57.30
2019-03-13T20:50:36.457Z,57.78
2019-03-13T20:53:00.334Z,57.46
2019-03-13T20:55:29.015Z,57.03
2019-03-13T20:57:57.697Z,56.95
2019-03-13T21:00:29.740Z,56.67
2019-03-13T21:02:59.083Z,56.45
2019-03-13T21:05:27.810Z,56.78
2019-03-13T21:07:56.755Z,56.41
2019-03-13T21:10:25.666Z,56.61
2019-03-13T21:12:54.332Z,56.36
2019-03-13T21:15:29.439Z,56.22
2019-03-13T21:17:58.744Z,56.14
2019-03-13T21:20:27.508Z,56.35
2019-03-13T21:22:58.190Z,56.36
2019-03-13T21:25:27.468Z,56.23
2019-03-13T21:27:56.142Z,56.50
2019-03-13T21:30:26.126Z,56.74
2019-03-13T21:32:55.108Z,56.97
2019-03-13T21:35:24.438Z,56.40
2019-03-13T21:37:53.096Z,56.82
2019-03-13T21:40:23.467Z,56.71
2019-03-13T21:42:54.559Z,57.18
2019-03-13T21:45:23.299Z,57.04
2019-03-13T21:47:52.147Z,56.66
2019-03-13T21:50:21.727Z,56.49
2019-03-13T21:52:50.391Z,57.03
2019-03-13T21:55:19.763Z,56.86
2019-03-13T21:57:51.761Z,57.32
2019-03-13T22:00:26.404Z,56.85
2019-03-13T22:02:55.299Z,57.15
2019-03-13T22:05:27.065Z,57.06
2019-03-13T22:07:54.709Z,57.25
2019-03-13T22:10:23.560Z,57.52
2019-03-13T22:12:52.534Z,56.96
2019-03-13T22:15:23.361Z,57.65
2019-03-13T22:17:52.025Z,57.16
2019-03-13T22:20:20.698Z,57.22
2019-03-13T22:22:49.460Z,57.49
2019-03-13T22:25:19.433Z,57.59
2019-03-13T22:27:48.582Z,57.82
2019-03-13T22:30:24.393Z,58.10
2019-03-13T22:32:53.762Z,57.78
2019-03-13T22:35:22.706Z,57.96
2019-03-13T22:37:51.491Z,57.56
2019-03-13T22:40:20.614Z,57.76
2019-03-13T22:42:49.427Z,57.96
2019-03-13T22:45:19.333Z,58.85
2019-03-13T22:47:48.339Z,58.35
2019-03-13T22:50:22.074Z,59.24
2019-03-13T22:52:50.743Z,59.01
2019-03-13T22:55:19.460Z,58.51
2019-03-13T22:57:48.137Z,58.49
2019-03-13T23:00:35.962Z,58.53
2019-03-13T23:03:04.634Z,58.58
2019-03-13T23:05:36.037Z,59.00
2019-03-13T23:08:04.098Z,59.17
2019-03-13T23:10:36.181Z,59.25
2019-03-13T23:13:04.963Z,58.80
2019-03-13T23:15:33.627Z,59.17
2019-03-13T23:18:02.367Z,58.79
2019-03-13T23:20:31.073Z,59.09
2019-03-13T23:22:59.804Z,59.21
2019-03-13T23:25:28.563Z,59.59
2019-03-13T23:27:57.228Z,60.17
2019-03-13T23:30:25.922Z,60.04
2019-03-13T23:32:54.568Z,60.25
2019-03-13T23:35:23.263Z,60.49
2019-03-13T23:37:51.929Z,60.64
2019-03-13T23:40:22.105Z,60.68
2019-03-13T23:42:50.876Z,60.61
2019-03-13T23:45:19.856Z,60.64
2019-03-13T23:47:48.569Z,60.88
2019-03-13T23:50:17.240Z,60.95
2019-03-13T23:52:45.924Z,61.05
2019-03-13T23:55:14.633Z,61.23
2019-03-13T23:57:43.312Z,60.96
